Time;durP1;ratioP1;P1;durP2;ratioP2;P2;SDS_P1;SDS_P2;PMS_P1;PMS_P2;Temp;Humidity;BMP_temperature;BMP_pressure;BME280_temperature;BME280_humidity;BME280_pressure;Samples;Min_cycle;Max_cycle;Signal;HPM_P1;HPM_P2
2022/09/11 00:00:28;;;;;;;;;;;14.40;99.90;;;;;;4202890;28;19924;-59
2022/09/11 00:02:30;;;;;;;;;;;14.50;99.90;;;;;;4212092;28;19924;-60
2022/09/11 00:04:32;;;;;;;;;;;14.30;99.90;;;;;;4211932;28;20009;-59
2022/09/11 00:06:34;;;;;;;;;;;14.10;99.90;;;;;;4211978;28;19924;-60
2022/09/11 00:08:37;;;;;;;;;;;14.10;99.90;;;;;;4212174;28;19928;-60
2022/09/11 00:10:39;;;;;;;;;;;14.20;99.90;;;;;;4211918;28;19924;-59
2022/09/11 00:12:42;;;;;;;;;;;14.20;99.90;;;;;;4215756;28;19932;-59
2022/09/11 00:14:44;;;;;;;;;;;14.10;99.90;;;;;;4215647;28;19928;-59
2022/09/11 00:16:46;;;;;;;;;;;14.00;99.90;;;;;;4214839;28;20307;-58
2022/09/11 00:18:48;;;;;;;;;;;13.90;99.90;;;;;;4215120;28;19993;-60
2022/09/11 00:20:52;;;;;;;;;;;14.00;99.90;;;;;;4213562;28;20097;-59
2022/09/11 00:22:54;;;;;;;;;;;13.90;99.90;;;;;;4215245;28;19924;-60
2022/09/11 00:24:57;;;;;;;;;;;13.70;99.90;;;;;;4215270;28;19978;-59
2022/09/11 00:26:59;;;;;;;;;;;13.60;99.90;;;;;;4214931;28;19923;-60
2022/09/11 00:29:03;;;;;;;;;;;13.60;99.90;;;;;;4214999;28;19928;-59
2022/09/11 00:31:11;;;;;;;;;;;13.60;99.90;;;;;;4215340;28;20018;-59
2022/09/11 00:33:13;;;;;;;;;;;13.50;99.90;;;;;;4213463;28;20457;-60
2022/09/11 00:35:15;;;;;;;;;;;13.40;99.90;;;;;;4215190;28;19931;-59
2022/09/11 00:37:17;;;;;;;;;;;13.40;99.90;;;;;;4215146;28;20027;-59
2022/09/11 00:39:20;;;;;;;;;;;13.40;99.90;;;;;;4214717;28;19928;-59
2022/09/11 00:41:35;;;;;;;;;;;13.50;99.90;;;;;;4215002;28;20384;-59
2022/09/11 00:43:48;;;;;;;;;;;13.50;99.90;;;;;;4215125;28;19931;-59
2022/09/11 00:45:55;;;;;;;;;;;13.60;99.90;;;;;;4214589;28;19928;-59
2022/09/11 00:47:58;;;;;;;;;;;13.70;99.90;;;;;;4214304;28;19931;-59
2022/09/11 00:50:08;;;;;;;;;;;13.60;99.90;;;;;;4215175;28;19928;-59
2022/09/11 00:52:13;;;;;;;;;;;13.50;99.90;;;;;;4215451;28;19928;-59
2022/09/11 00:54:17;;;;;;;;;;;13.50;99.90;;;;;;4214618;28;20551;-59
2022/09/11 00:56:21;;;;;;;;;;;13.20;99.90;;;;;;4214937;28;19973;-59
2022/09/11 00:58:26;;;;;;;;;;;13.10;99.90;;;;;;4214217;28;19924;-59
2022/09/11 01:00:28;;;;;;;;;;;13.20;99.90;;;;;;4214630;28;19924;-59
2022/09/11 01:02:32;;;;;;;;;;;13.30;99.90;;;;;;4214635;28;20206;-59
2022/09/11 01:04:34;;;;;;;;;;;13.40;99.90;;;;;;4214417;28;20360;-59
2022/09/11 01:06:36;;;;;;;;;;;13.40;99.90;;;;;;4214397;28;19934;-59
2022/09/11 01:08:38;;;;;;;;;;;13.40;99.90;;;;;;4214696;28;20307;-59
2022/09/11 01:10:43;;;;;;;;;;;13.30;99.90;;;;;;4214291;28;19924;-59
2022/09/11 01:13:03;;;;;;;;;;;13.40;99.90;;;;;;4214344;28;19924;-59
2022/09/11 01:15:07;;;;;;;;;;;13.20;99.90;;;;;;4197917;28;20136;-59
2022/09/11 01:17:09;;;;;;;;;;;13.00;99.90;;;;;;4206343;28;19932;-59
2022/09/11 01:19:30;;;;;;;;;;;13.10;99.90;;;;;;4214401;28;19931;-59
2022/09/11 01:21:38;;;;;;;;;;;13.20;99.90;;;;;;4197642;28;19935;-59
2022/09/11 01:23:40;;;;;;;;;;;13.30;99.90;;;;;;4206771;28;19924;-59
2022/09/11 01:25:51;;;;;;;;;;;13.30;99.90;;;;;;4214089;28;19935;-58
2022/09/11 01:27:57;;;;;;;;;;;13.30;99.90;;;;;;4214448;28;20398;-59
2022/09/11 01:30:01;;;;;;;;;;;13.10;99.90;;;;;;4214347;28;19928;-59
2022/09/11 01:32:03;;;;;;;;;;;13.10;99.90;;;;;;4214030;28;19924;-59
2022/09/11 01:34:28;;;;;;;;;;;13.20;99.90;;;;;;4197185;28;19939;-59
2022/09/11 01:36:59;;;;;;;;;;;13.10;99.90;;;;;;4201917;28;19931;-58
2022/09/11 01:39:03;;;;;;;;;;;13.00;99.90;;;;;;4204568;28;19924;-59
2022/09/11 01:41:07;;;;;;;;;;;13.00;99.90;;;;;;4214339;28;19973;-58
2022/09/11 01:43:12;;;;;;;;;;;13.10;99.90;;;;;;4201214;28;19924;-58
2022/09/11 01:45:15;;;;;;;;;;;13.10;99.90;;;;;;4200410;28;20381;-59
2022/09/11 01:47:19;;;;;;;;;;;13.10;99.90;;;;;;4217957;28;19928;-59
2022/09/11 01:49:20;;;;;;;;;;;13.20;99.90;;;;;;4219761;28;19931;-59
2022/09/11 01:51:25;;;;;;;;;;;13.20;99.90;;;;;;4213571;28;19928;-59
2022/09/11 01:53:31;;;;;;;;;;;13.20;99.90;;;;;;4213950;28;19932;-59
2022/09/11 01:55:41;;;;;;;;;;;13.10;99.90;;;;;;4213782;28;20001;-59
2022/09/11 01:57:50;;;;;;;;;;;12.90;99.90;;;;;;4213355;28;19935;-59
2022/09/11 01:59:56;;;;;;;;;;;12.80;99.90;;;;;;4214367;28;19935;-59
2022/09/11 02:02:02;;;;;;;;;;;12.80;99.90;;;;;;4213276;28;19924;-59
2022/09/11 02:04:09;;;;;;;;;;;12.90;99.90;;;;;;4213813;28;20029;-59
2022/09/11 02:06:14;;;;;;;;;;;12.90;99.90;;;;;;4213655;28;19924;-59
2022/09/11 02:08:24;;;;;;;;;;;12.80;99.90;;;;;;4213388;28;19932;-59
2022/09/11 02:10:30;;;;;;;;;;;12.80;99.90;;;;;;4213875;28;20031;-59
2022/09/11 02:12:45;;;;;;;;;;;12.80;99.90;;;;;;4213619;28;19934;-59
2022/09/11 02:14:49;;;;;;;;;;;12.90;99.90;;;;;;4213340;28;19998;-58
2022/09/11 02:16:52;;;;;;;;;;;12.90;99.90;;;;;;4213638;28;19924;-59
2022/09/11 02:18:54;;;;;;;;;;;12.80;99.90;;;;;;4213496;28;19935;-59
2022/09/11 02:20:56;;;;;;;;;;;12.60;99.90;;;;;;4213019;28;20324;-59
2022/09/11 02:22:58;;;;;;;;;;;12.50;99.90;;;;;;4213435;28;19928;-59
2022/09/11 02:25:01;;;;;;;;;;;12.50;99.90;;;;;;4213252;28;19928;-59
2022/09/11 02:27:07;;;;;;;;;;;12.40;99.90;;;;;;4213431;28;20085;-59
2022/09/11 02:29:09;;;;;;;;;;;12.40;99.90;;;;;;4213482;28;19924;-59
2022/09/11 02:31:11;;;;;;;;;;;12.40;99.90;;;;;;4211788;28;19950;-59
2022/09/11 02:33:45;;;;;;;;;;;12.40;99.90;;;;;;4212589;28;19935;-58
2022/09/11 02:35:51;;;;;;;;;;;12.50;99.90;;;;;;4176788;28;20399;-59
2022/09/11 02:37:58;;;;;;;;;;;12.40;99.90;;;;;;4177731;28;19929;-59
2022/09/11 02:40:19;;;;;;;;;;;12.40;99.90;;;;;;4177265;28;19925;-59
2022/09/11 02:42:20;;;;;;;;;;;12.40;99.90;;;;;;4177657;28;19954;-59
2022/09/11 02:44:41;;;;;;;;;;;12.40;99.90;;;;;;4177457;28;19944;-59
2022/09/11 02:47:09;;;;;;;;;;;12.40;99.90;;;;;;4176937;28;19966;-59
2022/09/11 02:49:36;;;;;;;;;;;12.40;99.90;;;;;;4174314;28;19964;-59
2022/09/11 02:51:58;;;;;;;;;;;12.50;99.90;;;;;;4177459;28;20019;-58
2022/09/11 02:54:02;;;;;;;;;;;12.50;99.90;;;;;;4177602;28;20449;-58
2022/09/11 02:56:04;;;;;;;;;;;12.30;99.90;;;;;;4177230;28;19931;-58
2022/09/11 02:58:14;;;;;;;;;;;12.10;99.90;;;;;;4177589;28;19924;-59
2022/09/11 03:00:16;;;;;;;;;;;12.30;99.90;;;;;;4177415;28;20431;-58
2022/09/11 03:02:18;;;;;;;;;;;12.50;99.90;;;;;;4177380;28;20394;-59
2022/09/11 03:04:21;;;;;;;;;;;12.50;99.90;;;;;;4177400;28;20444;-58
2022/09/11 03:06:25;;;;;;;;;;;12.50;99.90;;;;;;4176994;28;19968;-58
2022/09/11 03:08:26;;;;;;;;;;;12.50;99.90;;;;;;4177287;28;20027;-58
2022/09/11 03:10:28;;;;;;;;;;;12.50;99.90;;;;;;4160818;28;20006;-59
2022/09/11 03:12:30;;;;;;;;;;;12.50;99.90;;;;;;4206955;28;19962;-58
2022/09/11 03:14:33;;;;;;;;;;;12.50;99.90;;;;;;4212808;28;20318;-59
2022/09/11 03:16:38;;;;;;;;;;;12.40;99.90;;;;;;4212422;28;19924;-58
2022/09/11 03:18:39;;;;;;;;;;;12.40;99.90;;;;;;4211028;28;20304;-58
2022/09/11 03:20:48;;;;;;;;;;;12.10;99.90;;;;;;4212366;28;20387;-58
2022/09/11 03:22:50;;;;;;;;;;;12.10;99.90;;;;;;4212552;28;20387;-58
2022/09/11 03:24:52;;;;;;;;;;;12.10;99.90;;;;;;4212541;28;19962;-58
2022/09/11 03:26:54;;;;;;;;;;;12.10;99.90;;;;;;4211025;28;19955;-58
2022/09/11 03:28:56;;;;;;;;;;;12.20;99.90;;;;;;4212497;28;19932;-58
2022/09/11 03:30:58;;;;;;;;;;;12.20;99.90;;;;;;4212701;28;20349;-58
2022/09/11 03:33:00;;;;;;;;;;;12.20;99.90;;;;;;4213253;28;19963;-58
2022/09/11 03:35:02;;;;;;;;;;;12.20;99.90;;;;;;4212596;28;19924;-58
2022/09/11 03:37:04;;;;;;;;;;;12.20;99.90;;;;;;4212061;28;19928;-57
2022/09/11 03:39:06;;;;;;;;;;;12.10;99.90;;;;;;4212402;28;19932;-59
2022/09/11 03:41:08;;;;;;;;;;;12.10;99.90;;;;;;4215462;28;20295;-58
2022/09/11 03:43:11;;;;;;;;;;;12.00;99.90;;;;;;4212664;28;19928;-58
2022/09/11 03:45:13;;;;;;;;;;;12.00;99.90;;;;;;4212199;28;19924;-58
2022/09/11 03:47:15;;;;;;;;;;;12.00;99.90;;;;;;4217009;28;19931;-58
2022/09/11 03:49:17;;;;;;;;;;;11.80;99.90;;;;;;4218008;28;19932;-58
2022/09/11 03:51:20;;;;;;;;;;;11.70;99.90;;;;;;4217984;28;19928;-58
2022/09/11 03:53:21;;;;;;;;;;;11.80;99.90;;;;;;4218043;28;19932;-58
2022/09/11 03:55:23;;;;;;;;;;;11.80;99.90;;;;;;4217905;28;19928;-58
2022/09/11 03:57:25;;;;;;;;;;;11.80;99.90;;;;;;4217955;28;19924;-58
2022/09/11 03:59:27;;;;;;;;;;;11.90;99.90;;;;;;4217868;28;20022;-58
2022/09/11 04:01:29;;;;;;;;;;;11.90;99.90;;;;;;4217866;28;19950;-58
2022/09/11 04:03:32;;;;;;;;;;;12.00;99.90;;;;;;4217785;28;19935;-58
2022/09/11 04:05:34;;;;;;;;;;;12.10;99.90;;;;;;4217556;28;19932;-58
2022/09/11 04:07:37;;;;;;;;;;;12.00;99.90;;;;;;4217593;28;19924;-58
2022/09/11 04:09:39;;;;;;;;;;;12.00;99.90;;;;;;4217800;28;19932;-58
2022/09/11 04:11:41;;;;;;;;;;;12.00;99.90;;;;;;4217858;28;20450;-58
2022/09/11 04:13:44;;;;;;;;;;;12.00;99.90;;;;;;4217982;28;19928;-58
2022/09/11 04:15:46;;;;;;;;;;;12.00;99.90;;;;;;4217818;28;19924;-58
2022/09/11 04:17:48;;;;;;;;;;;11.90;99.90;;;;;;4217815;28;19924;-58
2022/09/11 04:19:50;;;;;;;;;;;11.90;99.90;;;;;;4217507;28;19934;-58
2022/09/11 04:21:52;;;;;;;;;;;11.80;99.90;;;;;;4217163;28;20023;-58
2022/09/11 04:23:55;;;;;;;;;;;11.90;99.90;;;;;;4217713;28;20403;-58
2022/09/11 04:25:57;;;;;;;;;;;12.00;99.90;;;;;;4217722;28;19928;-58
2022/09/11 04:27:59;;;;;;;;;;;12.10;99.90;;;;;;4217467;28;19928;-58
2022/09/11 04:30:01;;;;;;;;;;;12.10;99.90;;;;;;4217544;28;19924;-58
2022/09/11 04:32:02;;;;;;;;;;;11.90;99.90;;;;;;4217306;28;20299;-58
2022/09/11 04:34:05;;;;;;;;;;;11.80;99.90;;;;;;4215698;28;19928;-58
2022/09/11 04:36:09;;;;;;;;;;;11.70;99.90;;;;;;4217667;28;19932;-58
2022/09/11 04:38:11;;;;;;;;;;;11.60;99.90;;;;;;4217599;28;19924;-58
2022/09/11 04:40:13;;;;;;;;;;;11.60;99.90;;;;;;4217720;28;19932;-58
2022/09/11 04:42:14;;;;;;;;;;;11.70;99.90;;;;;;4217098;28;20343;-58
2022/09/11 04:44:19;;;;;;;;;;;11.90;99.90;;;;;;4217245;28;19924;-58
2022/09/11 04:46:22;;;;;;;;;;;12.00;99.90;;;;;;4217471;28;20401;-58
2022/09/11 04:48:24;;;;;;;;;;;12.00;99.90;;;;;;4217065;28;19928;-58
2022/09/11 04:50:27;;;;;;;;;;;12.00;99.90;;;;;;4216157;28;19928;-58
2022/09/11 04:52:29;;;;;;;;;;;12.00;99.90;;;;;;4217203;28;19924;-57
2022/09/11 04:54:35;;;;;;;;;;;12.00;99.90;;;;;;4204672;28;20419;-58
2022/09/11 04:56:37;;;;;;;;;;;12.10;99.90;;;;;;4200838;28;20423;-58
2022/09/11 04:58:39;;;;;;;;;;;12.00;99.90;;;;;;4197188;28;19952;-58
2022/09/11 05:00:41;;;;;;;;;;;12.00;99.90;;;;;;4198243;28;19928;-58
2022/09/11 05:02:43;;;;;;;;;;;12.20;99.90;;;;;;4198023;28;20386;-58
2022/09/11 05:04:45;;;;;;;;;;;12.10;99.90;;;;;;4197805;28;20368;-58
2022/09/11 05:06:47;;;;;;;;;;;12.00;99.90;;;;;;4197971;28;20403;-57
2022/09/11 05:08:52;;;;;;;;;;;11.90;99.90;;;;;;4197986;28;19982;-58
2022/09/11 05:10:54;;;;;;;;;;;12.00;99.90;;;;;;4197698;28;20346;-58
2022/09/11 05:12:55;;;;;;;;;;;11.80;99.90;;;;;;4198228;28;19928;-58
2022/09/11 05:14:58;;;;;;;;;;;11.70;99.90;;;;;;4197802;28;19936;-58
2022/09/11 05:17:00;;;;;;;;;;;11.70;99.90;;;;;;4197867;28;19928;-58
2022/09/11 05:19:05;;;;;;;;;;;11.60;99.90;;;;;;4197955;28;19924;-58
2022/09/11 05:21:12;;;;;;;;;;;11.70;99.90;;;;;;4197515;28;20101;-58
2022/09/11 05:23:13;;;;;;;;;;;11.70;99.90;;;;;;4197711;28;19932;-57
2022/09/11 05:25:17;;;;;;;;;;;11.80;99.90;;;;;;4197854;28;20402;-56
2022/09/11 05:27:19;;;;;;;;;;;11.90;99.90;;;;;;4197545;28;20342;-58
2022/09/11 05:29:22;;;;;;;;;;;12.10;99.90;;;;;;4197445;28;19924;-58
2022/09/11 05:31:24;;;;;;;;;;;12.20;99.90;;;;;;4197643;28;19931;-58
2022/09/11 05:33:26;;;;;;;;;;;12.10;99.90;;;;;;4197203;28;19938;-58
2022/09/11 05:35:28;;;;;;;;;;;12.00;99.90;;;;;;4207999;28;19928;-58
2022/09/11 05:37:33;;;;;;;;;;;12.10;99.90;;;;;;4197417;28;19974;-58
2022/09/11 05:39:34;;;;;;;;;;;12.10;99.90;;;;;;4197520;28;19928;-57
2022/09/11 05:41:36;;;;;;;;;;;12.10;99.90;;;;;;4209360;28;19932;-58
2022/09/11 05:43:39;;;;;;;;;;;12.10;99.90;;;;;;4214282;28;19928;-58
2022/09/11 05:45:42;;;;;;;;;;;12.10;99.90;;;;;;4213913;28;19932;-58
2022/09/11 05:47:44;;;;;;;;;;;12.20;99.90;;;;;;4213482;28;19924;-57
2022/09/11 05:49:46;;;;;;;;;;;12.30;99.90;;;;;;4213676;28;19971;-55
2022/09/11 05:51:48;;;;;;;;;;;12.40;99.90;;;;;;4213849;28;19946;-58
2022/09/11 05:53:54;;;;;;;;;;;12.40;99.90;;;;;;4213844;28;19924;-58
2022/09/11 05:56:08;;;;;;;;;;;12.70;99.90;;;;;;4213822;28;19931;-58
2022/09/11 05:58:10;;;;;;;;;;;12.90;99.90;;;;;;4213517;28;19973;-58
2022/09/11 06:00:12;;;;;;;;;;;13.00;99.90;;;;;;4212871;28;19927;-58
2022/09/11 06:02:14;;;;;;;;;;;13.10;99.90;;;;;;4211476;28;19928;-58
2022/09/11 06:04:17;;;;;;;;;;;13.10;99.90;;;;;;4212693;28;20027;-57
2022/09/11 06:06:20;;;;;;;;;;;13.10;99.90;;;;;;4212128;28;19924;-58
2022/09/11 06:08:22;;;;;;;;;;;13.10;99.90;;;;;;4213946;28;20019;-58
2022/09/11 06:10:24;;;;;;;;;;;13.10;99.90;;;;;;4196652;28;20288;-58
2022/09/11 06:12:27;;;;;;;;;;;13.10;99.90;;;;;;4203921;28;19928;-57
2022/09/11 06:14:29;;;;;;;;;;;13.10;99.90;;;;;;4213774;28;19924;-58
2022/09/11 06:16:31;;;;;;;;;;;13.10;99.90;;;;;;4213127;28;19964;-58
2022/09/11 06:18:33;;;;;;;;;;;13.10;99.90;;;;;;4213309;28;19928;-58
2022/09/11 06:20:35;;;;;;;;;;;13.10;99.90;;;;;;4213227;28;20062;-58
2022/09/11 06:22:37;;;;;;;;;;;13.20;99.90;;;;;;4212953;28;19928;-58
2022/09/11 06:24:39;;;;;;;;;;;13.20;99.90;;;;;;4212686;28;20019;-58
2022/09/11 06:26:45;;;;;;;;;;;13.20;99.90;;;;;;4203259;28;20441;-58
2022/09/11 06:28:47;;;;;;;;;;;13.20;99.90;;;;;;4207189;28;19931;-58
2022/09/11 06:30:49;;;;;;;;;;;13.20;99.90;;;;;;4213310;28;19925;-58
2022/09/11 06:32:55;;;;;;;;;;;13.30;99.90;;;;;;4220180;28;20006;-58
2022/09/11 06:34:57;;;;;;;;;;;13.40;99.90;;;;;;4204687;28;20006;-57
2022/09/11 06:36:59;;;;;;;;;;;13.50;99.90;;;;;;4213433;28;19924;-58
2022/09/11 06:39:01;;;;;;;;;;;13.50;99.90;;;;;;4213000;28;20019;-58
2022/09/11 06:41:05;;;;;;;;;;;13.50;99.90;;;;;;4212550;28;20453;-58
2022/09/11 06:43:06;;;;;;;;;;;13.50;99.90;;;;;;4213146;28;19960;-58
2022/09/11 06:45:09;;;;;;;;;;;13.60;99.90;;;;;;4212890;28;19924;-58
2022/09/11 06:47:12;;;;;;;;;;;13.60;99.90;;;;;;4212258;28;19928;-58
2022/09/11 06:49:15;;;;;;;;;;;13.80;99.90;;;;;;4213057;28;19934;-57
2022/09/11 06:51:18;;;;;;;;;;;13.80;99.90;;;;;;4212624;28;19967;-58
2022/09/11 06:53:20;;;;;;;;;;;13.80;99.90;;;;;;4213211;28;19962;-58
2022/09/11 06:55:22;;;;;;;;;;;13.90;99.90;;;;;;4212795;28;19924;-58
2022/09/11 06:57:23;;;;;;;;;;;14.00;99.90;;;;;;4212645;28;19973;-58
2022/09/11 06:59:25;;;;;;;;;;;14.10;99.90;;;;;;4212903;28;19977;-57
2022/09/11 07:01:27;;;;;;;;;;;14.20;99.90;;;;;;4196178;28;20451;-58
2022/09/11 07:03:30;;;;;;;;;;;14.30;99.90;;;;;;4202701;28;19924;-58
2022/09/11 07:05:32;;;;;;;;;;;14.50;99.90;;;;;;4203918;28;20299;-58
2022/09/11 07:07:34;;;;;;;;;;;14.60;99.90;;;;;;4210366;28;20306;-58
2022/09/11 07:09:36;;;;;;;;;;;14.70;99.90;;;;;;4212810;28;19928;-59
2022/09/11 07:11:42;;;;;;;;;;;14.90;99.90;;;;;;4211145;28;19932;-58
2022/09/11 07:13:44;;;;;;;;;;;15.00;99.90;;;;;;4208141;28;20007;-58
2022/09/11 07:15:49;;;;;;;;;;;15.10;99.90;;;;;;4212613;28;19928;-58
2022/09/11 07:17:51;;;;;;;;;;;15.20;99.90;;;;;;4212170;28;20319;-58
2022/09/11 07:19:53;;;;;;;;;;;15.50;99.90;;;;;;4212281;28;19930;-58
2022/09/11 07:21:55;;;;;;;;;;;15.60;99.90;;;;;;4211693;28;19969;-58
2022/09/11 07:23:57;;;;;;;;;;;15.70;99.90;;;;;;4212756;28;19935;-59
2022/09/11 07:26:03;;;;;;;;;;;15.90;99.90;;;;;;4208319;28;20337;-59
2022/09/11 07:28:05;;;;;;;;;;;16.10;99.90;;;;;;4197197;28;20378;-58
2022/09/11 07:30:07;;;;;;;;;;;16.30;99.90;;;;;;4211932;28;20409;-59
2022/09/11 07:32:09;;;;;;;;;;;16.30;99.90;;;;;;4206269;28;20314;-58
2022/09/11 07:34:12;;;;;;;;;;;16.30;99.90;;;;;;4212143;28;19931;-59
2022/09/11 07:36:15;;;;;;;;;;;16.50;99.90;;;;;;4212453;28;19931;-59
2022/09/11 07:38:17;;;;;;;;;;;16.80;99.90;;;;;;4212057;28;19924;-59
2022/09/11 07:40:20;;;;;;;;;;;17.10;99.90;;;;;;4211581;28;19960;-58
2022/09/11 07:42:22;;;;;;;;;;;17.30;99.90;;;;;;4210942;28;19974;-59
2022/09/11 07:44:24;;;;;;;;;;;17.40;99.90;;;;;;4212574;28;19958;-59
2022/09/11 07:46:26;;;;;;;;;;;17.50;99.90;;;;;;4212546;28;19970;-59
2022/09/11 07:48:28;;;;;;;;;;;17.80;99.90;;;;;;4210946;28;19934;-58
2022/09/11 07:50:30;;;;;;;;;;;18.00;99.90;;;;;;4212019;28;20397;-59
2022/09/11 07:52:32;;;;;;;;;;;18.00;99.90;;;;;;4212295;28;20307;-59
2022/09/11 07:54:33;;;;;;;;;;;18.00;99.90;;;;;;4212265;28;20807;-59
2022/09/11 07:56:35;;;;;;;;;;;17.80;99.90;;;;;;4212316;28;19935;-59
2022/09/11 07:58:39;;;;;;;;;;;17.80;99.90;;;;;;4212279;28;19939;-59
2022/09/11 08:00:41;;;;;;;;;;;17.90;99.90;;;;;;4212384;28;20446;-59
2022/09/11 08:02:43;;;;;;;;;;;18.10;99.90;;;;;;4212177;28;19924;-59
2022/09/11 08:04:45;;;;;;;;;;;18.10;99.90;;;;;;4212358;28;20448;-59
2022/09/11 08:06:46;;;;;;;;;;;18.40;99.90;;;;;;4209039;28;19928;-59
2022/09/11 08:08:53;;;;;;;;;;;18.50;99.90;;;;;;4197413;28;20380;-59
2022/09/11 08:10:55;;;;;;;;;;;18.50;99.90;;;;;;4210661;27;20394;-59
2022/09/11 08:12:58;;;;;;;;;;;18.80;99.90;;;;;;4210883;28;20535;-58
2022/09/11 08:15:01;;;;;;;;;;;19.10;99.90;;;;;;4210960;28;20383;-59
2022/09/11 08:17:03;;;;;;;;;;;19.00;99.90;;;;;;4209990;28;20297;-59
2022/09/11 08:19:05;;;;;;;;;;;19.00;99.90;;;;;;4207919;28;19934;-59
2022/09/11 08:21:08;;;;;;;;;;;19.10;99.90;;;;;;4210550;28;19957;-59
2022/09/11 08:23:16;;;;;;;;;;;19.20;99.90;;;;;;4210133;28;20007;-59
2022/09/11 08:25:18;;;;;;;;;;;19.50;99.90;;;;;;4212178;28;19992;-58
2022/09/11 08:27:21;;;;;;;;;;;19.80;99.90;;;;;;4210694;28;20042;-59
2022/09/11 08:29:23;;;;;;;;;;;19.80;99.90;;;;;;4211937;28;19982;-58
2022/09/11 08:31:26;;;;;;;;;;;19.80;99.90;;;;;;4212065;28;19977;-59
2022/09/11 08:33:28;;;;;;;;;;;20.10;99.90;;;;;;4212661;28;20327;-59
2022/09/11 08:35:32;;;;;;;;;;;20.50;99.90;;;;;;4215003;28;19959;-59
2022/09/11 08:37:34;;;;;;;;;;;20.60;99.90;;;;;;4212636;28;19931;-59
2022/09/11 08:39:36;;;;;;;;;;;20.80;99.90;;;;;;4212488;28;19928;-59
2022/09/11 08:41:40;;;;;;;;;;;20.70;99.90;;;;;;4203352;28;20320;-59
2022/09/11 08:43:49;;;;;;;;;;;20.70;99.90;;;;;;4215114;28;20043;-59
2022/09/11 08:45:54;;;;;;;;;;;20.70;99.90;;;;;;4215126;28;20403;-59
2022/09/11 08:47:57;;;;;;;;;;;20.70;99.90;;;;;;4214511;28;20007;-59
2022/09/11 08:50:14;;;;;;;;;;;21.00;99.90;;;;;;4214996;28;19928;-59
2022/09/11 08:52:16;;;;;;;;;;;21.10;99.90;;;;;;4214614;28;20300;-59
2022/09/11 08:54:21;;;;;;;;;;;21.10;99.90;;;;;;4214745;28;19932;-59
2022/09/11 08:56:25;;;;;;;;;;;21.30;99.90;;;;;;4214050;28;20409;-60
2022/09/11 08:58:33;;;;;;;;;;;21.40;99.90;;;;;;4206028;28;20353;-58
2022/09/11 09:00:39;;;;;;;;;;;21.50;99.90;;;;;;4215028;28;19962;-58
2022/09/11 09:03:01;;;;;;;;;;;21.70;99.90;;;;;;4198019;28;19929;-59
2022/09/11 09:05:19;;;;;;;;;;;22.00;99.90;;;;;;4208574;28;20011;-59
2022/09/11 09:07:39;;;;;;;;;;;21.90;99.90;;;;;;4213685;28;19986;-59
2022/09/11 09:09:54;;;;;;;;;;;22.40;99.90;;;;;;4213806;28;19950;-59
2022/09/11 09:12:01;;;;;;;;;;;22.60;99.90;;;;;;4214427;28;19963;-59
2022/09/11 09:14:06;;;;;;;;;;;22.90;99.90;;;;;;4214495;28;19928;-57
2022/09/11 09:16:26;;;;;;;;;;;23.10;99.90;;;;;;4209149;28;20017;-58
2022/09/11 09:18:43;;;;;;;;;;;23.30;99.90;;;;;;4213368;28;20277;-59
2022/09/11 09:20:49;;;;;;;;;;;23.60;99.90;;;;;;4212457;28;19928;-59
2022/09/11 09:22:57;;;;;;;;;;;23.90;99.90;;;;;;4197718;28;19936;-59
2022/09/11 09:25:03;;;;;;;;;;;24.20;99.90;;;;;;4203224;28;19928;-58
2022/09/11 09:27:05;;;;;;;;;;;24.40;99.90;;;;;;4207478;28;19924;-59
2022/09/11 09:29:16;;;;;;;;;;;24.40;99.90;;;;;;4213609;28;19928;-59
2022/09/11 09:31:19;;;;;;;;;;;24.60;99.90;;;;;;4208907;28;19998;-58
2022/09/11 09:33:21;;;;;;;;;;;24.40;99.90;;;;;;4202605;28;20359;-59
2022/09/11 09:35:30;;;;;;;;;;;24.40;99.90;;;;;;4200279;28;20273;-59
2022/09/11 09:37:32;;;;;;;;;;;24.40;99.90;;;;;;4212659;28;20367;-59
2022/09/11 09:39:37;;;;;;;;;;;24.60;99.90;;;;;;4209175;28;20384;-59
2022/09/11 09:41:39;;;;;;;;;;;24.80;99.90;;;;;;4209846;28;19928;-59
2022/09/11 09:43:41;;;;;;;;;;;24.80;99.90;;;;;;4212669;28;20338;-59
2022/09/11 09:45:57;;;;;;;;;;;24.90;99.90;;;;;;4209840;28;19970;-59
2022/09/11 09:48:00;;;;;;;;;;;24.60;99.90;;;;;;4202556;28;20436;-58
2022/09/11 09:50:16;;;;;;;;;;;24.60;99.90;;;;;;4209439;28;19967;-58
2022/09/11 09:52:19;;;;;;;;;;;24.60;99.90;;;;;;4211141;28;19963;-59
2022/09/11 09:54:25;;;;;;;;;;;24.70;99.90;;;;;;4213969;28;19924;-59
2022/09/11 09:56:29;;;;;;;;;;;24.60;99.90;;;;;;4212727;28;19936;-58
2022/09/11 09:58:47;;;;;;;;;;;25.10;99.90;;;;;;4211485;28;19924;-59
2022/09/11 10:00:49;;;;;;;;;;;25.50;99.90;;;;;;4202386;28;19940;-58
2022/09/11 10:02:56;;;;;;;;;;;25.60;99.90;;;;;;4210096;28;20387;-58
2022/09/11 10:05:17;;;;;;;;;;;25.50;99.90;;;;;;4209670;28;19928;-59
2022/09/11 10:07:20;;;;;;;;;;;26.00;99.90;;;;;;4196739;28;19935;-58
2022/09/11 10:09:28;;;;;;;;;;;26.50;99.90;;;;;;4211123;28;19956;-59
2022/09/11 10:11:30;;;;;;;;;;;26.70;99.90;;;;;;4195619;28;20303;-59
2022/09/11 10:13:35;;;;;;;;;;;26.50;99.90;;;;;;4206085;28;19924;-59
2022/09/11 10:15:38;;;;;;;;;;;26.20;99.90;;;;;;4210034;28;19928;-59
2022/09/11 10:17:40;;;;;;;;;;;26.00;99.90;;;;;;4213309;28;19974;-59
2022/09/11 10:19:42;;;;;;;;;;;25.80;99.90;;;;;;4212502;28;19928;-59
2022/09/11 10:21:44;;;;;;;;;;;25.70;99.30;;;;;;4215663;28;19928;-59
2022/09/11 10:23:53;;;;;;;;;;;25.60;99.70;;;;;;4211583;28;19928;-59
2022/09/11 10:25:55;;;;;;;;;;;25.60;99.80;;;;;;4212225;28;20354;-59
2022/09/11 10:28:01;;;;;;;;;;;26.00;98.90;;;;;;4213330;28;20324;-59
2022/09/11 10:30:03;;;;;;;;;;;26.00;98.90;;;;;;4212941;28;19934;-59
2022/09/11 10:32:05;;;;;;;;;;;26.30;99.40;;;;;;4213337;28;19924;-59
2022/09/11 10:34:13;;;;;;;;;;;26.10;99.80;;;;;;4211626;28;20390;-59
2022/09/11 10:36:21;;;;;;;;;;;26.30;99.90;;;;;;4213243;28;19924;-59
2022/09/11 10:38:30;;;;;;;;;;;26.40;99.70;;;;;;4196624;28;19929;-59
2022/09/11 10:40:33;;;;;;;;;;;26.40;98.80;;;;;;4202576;28;19928;-59
2022/09/11 10:42:36;;;;;;;;;;;26.20;97.30;;;;;;4213033;28;19977;-58
2022/09/11 10:44:41;;;;;;;;;;;26.30;97.60;;;;;;4211731;28;20354;-57
2022/09/11 10:46:44;;;;;;;;;;;26.80;97.60;;;;;;4211548;28;20015;-59
2022/09/11 10:48:55;;;;;;;;;;;27.10;96.90;;;;;;4210194;28;19924;-59
2022/09/11 10:51:04;;;;;;;;;;;27.40;96.30;;;;;;4212911;28;19924;-59
2022/09/11 10:53:21;;;;;;;;;;;27.90;98.00;;;;;;4212515;28;20018;-59
2022/09/11 10:55:29;;;;;;;;;;;27.60;95.30;;;;;;4212595;28;19928;-59
2022/09/11 10:57:42;;;;;;;;;;;27.20;95.80;;;;;;4198215;28;19929;-59
2022/09/11 10:59:57;;;;;;;;;;;27.30;95.60;;;;;;4204889;28;19932;-58
2022/09/11 11:01:59;;;;;;;;;;;27.50;95.70;;;;;;4202605;28;19928;-59
2022/09/11 11:04:01;;;;;;;;;;;27.50;95.70;;;;;;4212898;28;19931;-59
2022/09/11 11:06:03;;;;;;;;;;;27.00;96.30;;;;;;4212629;28;19928;-58
2022/09/11 11:08:14;;;;;;;;;;;27.10;97.60;;;;;;4211892;28;19924;-59
2022/09/11 11:10:35;;;;;;;;;;;27.40;97.40;;;;;;4195667;28;19987;-59
2022/09/11 11:12:45;;;;;;;;;;;27.60;95.10;;;;;;4204642;28;19946;-59
2022/09/11 11:14:47;;;;;;;;;;;27.70;95.20;;;;;;4202414;28;20360;-59
2022/09/11 11:16:49;;;;;;;;;;;28.00;95.50;;;;;;4213398;28;20023;-59
2022/09/11 11:18:54;;;;;;;;;;;28.00;95.00;;;;;;4220501;27;19924;-59
2022/09/11 11:20:56;;;;;;;;;;;28.00;94.60;;;;;;4212898;28;20018;-59
2022/09/11 11:23:17;;;;;;;;;;;28.00;93.80;;;;;;4211925;28;19951;-58
2022/09/11 11:25:25;;;;;;;;;;;27.90;93.70;;;;;;4211751;28;20481;-59
2022/09/11 11:28:03;;;;;;;;;;;27.80;95.20;;;;;;4212648;28;19928;-59
2022/09/11 11:30:08;;;;;;;;;;;27.50;94.20;;;;;;4177178;28;19971;-59
2022/09/11 11:32:33;;;;;;;;;;;27.40;95.30;;;;;;4197157;28;19932;-59
2022/09/11 11:34:42;;;;;;;;;;;27.40;95.30;;;;;;4208289;28;20015;-59
2022/09/11 11:37:14;;;;;;;;;;;27.10;95.20;;;;;;4196370;28;20447;-60
2022/09/11 11:39:19;;;;;;;;;;;27.00;95.20;;;;;;4189068;28;20349;-58
2022/09/11 11:41:22;;;;;;;;;;;26.90;95.50;;;;;;4212002;28;19928;-59
2022/09/11 11:43:27;;;;;;;;;;;26.80;95.20;;;;;;4211394;28;20014;-59
2022/09/11 11:45:33;;;;;;;;;;;26.90;95.50;;;;;;4211566;28;20047;-59
2022/09/11 11:47:37;;;;;;;;;;;26.90;95.90;;;;;;4211496;28;19924;-59
2022/09/11 11:49:41;;;;;;;;;;;26.80;97.00;;;;;;4211386;28;19924;-59
2022/09/11 11:52:03;;;;;;;;;;;26.70;96.20;;;;;;4197150;28;19924;-59
2022/09/11 11:54:13;;;;;;;;;;;26.30;96.10;;;;;;4209678;27;19928;-59
2022/09/11 11:56:14;;;;;;;;;;;26.00;96.90;;;;;;4212388;28;19928;-59
2022/09/11 11:58:16;;;;;;;;;;;25.70;97.10;;;;;;4210905;28;19928;-59
2022/09/11 12:00:18;;;;;;;;;;;25.70;97.70;;;;;;4209092;28;19924;-59
2022/09/11 12:02:23;;;;;;;;;;;25.60;97.50;;;;;;4208182;28;19938;-59
2022/09/11 12:04:25;;;;;;;;;;;25.60;98.30;;;;;;4212149;28;19924;-60
2022/09/11 12:06:27;;;;;;;;;;;25.60;97.40;;;;;;4210776;28;19924;-59